createdAt,value
2023-03-26T00:02:23.788Z,19.80
2023-03-26T00:04:53.370Z,19.10
2023-03-26T00:07:22.778Z,22.50
2023-03-26T00:09:50.787Z,23.00
2023-03-26T00:12:20.121Z,24.00
2023-03-26T00:14:52.849Z,24.30
2023-03-26T00:17:21.275Z,26.70
2023-03-26T00:19:50.302Z,28.80
2023-03-26T00:22:18.155Z,26.10
2023-03-26T00:24:49.313Z,24.70
2023-03-26T00:27:20.693Z,30.70
2023-03-26T00:29:49.566Z,33.00
2023-03-26T00:32:17.432Z,28.60
2023-03-26T00:34:46.251Z,29.70
2023-03-26T00:37:15.209Z,25.90
2023-03-26T00:39:49.342Z,24.10
2023-03-26T00:42:17.542Z,25.30
2023-03-26T00:44:45.650Z,25.50
2023-03-26T00:47:13.949Z,26.30
2023-03-26T00:49:42.772Z,23.80
2023-03-26T00:52:10.850Z,23.10
2023-03-26T00:54:38.938Z,25.00
2023-03-26T00:57:20.224Z,19.10
2023-03-26T00:59:55.607Z,24.00
2023-03-26T01:02:25.244Z,23.10
2023-03-26T01:04:57.149Z,21.20
2023-03-26T01:07:29.095Z,18.00
2023-03-26T01:09:58.652Z,17.80
2023-03-26T01:12:28.106Z,19.30
2023-03-26T01:14:57.221Z,14.80
2023-03-26T01:17:34.420Z,13.80
2023-03-26T01:20:15.129Z,12.80
2023-03-26T01:22:46.537Z,15.40
2023-03-26T01:25:14.535Z,11.30
2023-03-26T01:27:44.831Z,11.80
2023-03-26T01:30:25.217Z,11.30
2023-03-26T01:32:58.388Z,16.60
2023-03-26T01:35:38.550Z,10.30
2023-03-26T01:38:23.009Z,9.60
2023-03-26T01:40:55.405Z,10.80
2023-03-26T01:43:45.378Z,10.20
2023-03-26T01:46:14.180Z,11.60
2023-03-26T01:48:44.058Z,7.50
2023-03-26T01:51:12.983Z,9.00
2023-03-26T01:53:45.517Z,9.70
2023-03-26T01:56:19.907Z,10.80
2023-03-26T01:59:23.151Z,6.30
2023-03-26T02:01:55.001Z,7.70
2023-03-26T02:04:27.166Z,6.40
2023-03-26T02:07:10.699Z,4.50
2023-03-26T02:09:49.978Z,3.50
2023-03-26T02:12:18.052Z,2.80
2023-03-26T02:14:47.838Z,2.80
2023-03-26T02:17:16.811Z,5.10
2023-03-26T02:19:45.836Z,2.20
2023-03-26T02:22:16.375Z,2.70
2023-03-26T02:24:48.351Z,2.10
2023-03-26T02:27:18.486Z,2.00
2023-03-26T02:29:47.866Z,2.60
2023-03-26T02:32:19.396Z,2.10
2023-03-26T02:34:47.398Z,1.60
2023-03-26T02:37:19.144Z,2.50
2023-03-26T02:39:47.820Z,3.50
2023-03-26T02:42:31.893Z,3.20
2023-03-26T02:44:59.962Z,1.60
2023-03-26T02:47:33.986Z,1.90
2023-03-26T02:50:20.591Z,3.40
2023-03-26T02:53:09.230Z,2.90
2023-03-26T02:55:39.322Z,1.90
2023-03-26T02:58:07.980Z,2.80
2023-03-26T03:00:47.339Z,2.30
2023-03-26T03:03:37.892Z,4.20
2023-03-26T03:06:06.302Z,2.20
2023-03-26T03:08:48.396Z,4.10
2023-03-26T03:11:35.641Z,6.10
2023-03-26T03:14:03.941Z,3.20
2023-03-26T03:16:35.585Z,2.50
2023-03-26T03:19:07.210Z,3.90
2023-03-26T03:21:38.235Z,1.80
2023-03-26T03:24:07.355Z,2.40
2023-03-26T03:26:38.431Z,3.20
2023-03-26T03:29:27.132Z,3.70
2023-03-26T03:31:56.206Z,3.00
2023-03-26T03:34:38.709Z,2.90
2023-03-26T03:37:07.288Z,3.90
2023-03-26T03:39:45.941Z,2.90
2023-03-26T03:42:19.478Z,4.90
2023-03-26T03:44:47.796Z,5.50
2023-03-26T03:50:45.855Z,6.30
2023-03-26T03:53:40.738Z,3.80
2023-03-26T03:56:29.158Z,6.80
2023-03-26T03:59:17.699Z,3.90
2023-03-26T04:01:50.879Z,6.10
2023-03-26T04:04:26.690Z,4.10
2023-03-26T04:07:02.775Z,6.20
2023-03-26T04:09:36.476Z,5.10
2023-03-26T04:12:15.569Z,5.20
2023-03-26T04:14:50.955Z,5.30
2023-03-26T04:17:25.017Z,5.20
2023-03-26T04:19:57.144Z,6.10
2023-03-26T04:22:34.776Z,6.00
2023-03-26T04:25:10.868Z,5.80
2023-03-26T04:27:47.987Z,6.60
2023-03-26T04:30:35.080Z,4.60
2023-03-26T04:33:09.931Z,5.90
2023-03-26T04:35:41.823Z,8.40
2023-03-26T04:38:16.734Z,3.50
2023-03-26T04:40:47.744Z,5.00
2023-03-26T04:43:30.437Z,3.40
2023-03-26T04:46:27.993Z,4.80
2023-03-26T04:49:16.184Z,6.20
2023-03-26T04:51:46.747Z,6.80
2023-03-26T04:54:33.195Z,9.20
2023-03-26T04:57:09.394Z,4.40
2023-03-26T05:00:00.853Z,6.20
2023-03-26T05:02:37.772Z,5.40
2023-03-26T05:05:06.212Z,5.20
2023-03-26T05:07:36.309Z,4.40
2023-03-26T05:10:04.989Z,4.80
2023-03-26T05:12:39.452Z,5.10
2023-03-26T05:15:17.716Z,4.10
2023-03-26T05:17:52.062Z,4.60
2023-03-26T05:20:40.473Z,5.10
2023-03-26T05:23:14.064Z,6.30
2023-03-26T05:25:47.200Z,3.50
2023-03-26T05:28:24.418Z,4.40
2023-03-26T05:31:01.148Z,4.80
2023-03-26T05:33:30.733Z,4.90
2023-03-26T05:36:09.361Z,4.90
2023-03-26T05:38:37.856Z,4.30
2023-03-26T05:41:08.021Z,7.00
2023-03-26T05:43:39.730Z,4.70
2023-03-26T05:46:14.021Z,5.10
2023-03-26T05:48:44.194Z,4.80
2023-03-26T05:51:15.510Z,4.80
2023-03-26T05:53:57.077Z,4.80
2023-03-26T05:56:58.014Z,5.20
2023-03-26T05:59:45.242Z,4.20
2023-03-26T06:02:50.828Z,3.30
2023-03-26T06:06:00.672Z,4.80
2023-03-26T06:08:39.454Z,3.40
2023-03-26T06:11:08.293Z,5.50
2023-03-26T06:13:42.777Z,4.80
2023-03-26T06:16:21.061Z,2.70
2023-03-26T06:18:59.980Z,4.80
2023-03-26T06:21:51.219Z,5.40
2023-03-26T06:24:23.308Z,6.00
2023-03-26T06:27:04.425Z,3.50
2023-03-26T06:30:04.141Z,7.60
2023-03-26T06:32:51.610Z,3.10
2023-03-26T06:35:24.808Z,3.80
2023-03-26T06:37:53.461Z,7.40
2023-03-26T06:40:21.961Z,4.00
2023-03-26T06:43:10.960Z,5.40
2023-03-26T06:45:57.701Z,3.80
2023-03-26T06:48:39.273Z,2.70
2023-03-26T06:51:30.245Z,3.00
2023-03-26T06:54:17.461Z,2.40
2023-03-26T06:56:51.684Z,6.10
2023-03-26T06:59:28.147Z,4.10
2023-03-26T07:02:14.808Z,5.30
2023-03-26T07:05:18.185Z,4.80
2023-03-26T07:08:05.904Z,3.60
2023-03-26T07:10:59.870Z,4.50
2023-03-26T07:13:59.619Z,5.20
2023-03-26T07:17:06.316Z,4.40
2023-03-26T07:19:47.711Z,3.00
2023-03-26T07:22:23.351Z,7.00
2023-03-26T07:25:10.907Z,4.30
2023-03-26T07:28:02.997Z,4.70
2023-03-26T07:31:24.922Z,6.50
2023-03-26T07:34:29.277Z,2.90
2023-03-26T07:37:35.973Z,4.10
2023-03-26T07:41:01.707Z,5.10
2023-03-26T07:44:02.381Z,4.60
2023-03-26T07:46:48.122Z,4.50
2023-03-26T07:52:20.969Z,4.40
2023-03-26T07:55:08.603Z,5.70
2023-03-26T07:58:11.779Z,3.80
2023-03-26T08:01:40.501Z,5.70
2023-03-26T08:04:42.074Z,4.50
2023-03-26T08:07:39.679Z,5.90
2023-03-26T08:10:26.213Z,7.30
2023-03-26T08:13:14.414Z,5.30
2023-03-26T08:16:05.845Z,4.80
2023-03-26T08:18:44.826Z,5.00
2023-03-26T08:21:39.712Z,5.50
2023-03-26T08:24:20.242Z,5.50
2023-03-26T08:27:08.825Z,3.90
2023-03-26T08:29:41.476Z,6.20
2023-03-26T08:32:10.869Z,6.30
2023-03-26T08:34:39.026Z,6.20
2023-03-26T08:37:07.831Z,7.10
2023-03-26T08:39:38.911Z,6.00
2023-03-26T08:42:26.930Z,6.60
2023-03-26T08:45:16.755Z,5.60
2023-03-26T08:48:11.012Z,6.30
2023-03-26T08:51:10.876Z,6.80
2023-03-26T08:54:20.792Z,10.90
2023-03-26T08:57:37.319Z,6.90
2023-03-26T09:00:17.125Z,9.20
2023-03-26T09:03:17.486Z,7.60
2023-03-26T09:05:51.903Z,7.80
2023-03-26T09:08:22.844Z,9.20
2023-03-26T09:11:04.526Z,9.90
2023-03-26T09:13:44.689Z,8.80
2023-03-26T09:16:44.182Z,8.40
2023-03-26T09:19:31.048Z,9.20
2023-03-26T09:22:23.799Z,9.80
2023-03-26T09:25:02.570Z,9.30
2023-03-26T09:27:47.332Z,10.60
2023-03-26T09:30:44.672Z,14.50
2023-03-26T09:33:26.198Z,9.50
2023-03-26T09:36:03.617Z,10.60
2023-03-26T09:38:54.049Z,11.90
2023-03-26T09:41:40.723Z,11.80
2023-03-26T09:44:20.859Z,10.10
2023-03-26T09:47:07.030Z,8.10
2023-03-26T09:49:48.610Z,11.00
2023-03-26T09:52:20.610Z,10.60
2023-03-26T09:54:57.652Z,11.40
2023-03-26T09:57:49.435Z,10.40
2023-03-26T10:00:23.299Z,12.10
2023-03-26T10:03:33.650Z,12.40
2023-03-26T10:06:48.763Z,10.30
2023-03-26T10:09:40.943Z,14.80
2023-03-26T10:12:42.318Z,9.20
2023-03-26T10:15:32.842Z,14.30
2023-03-26T10:18:27.784Z,11.90
2023-03-26T10:21:25.328Z,11.70
2023-03-26T10:24:15.270Z,14.10
2023-03-26T10:27:10.782Z,9.80
2023-03-26T10:30:07.823Z,12.80
2023-03-26T10:32:52.319Z,9.80
2023-03-26T10:35:31.495Z,10.90
2023-03-26T10:38:31.095Z,13.50
2023-03-26T10:41:17.086Z,11.50
2023-03-26T10:43:54.839Z,11.60
2023-03-26T10:46:36.058Z,11.10
2023-03-26T10:51:01.457Z,12.40
2023-03-26T10:53:56.306Z,10.80
2023-03-26T10:56:29.219Z,10.20
2023-03-26T10:58:56.269Z,11.90
2023-03-26T11:01:30.935Z,11.80
2023-03-26T11:04:01.068Z,12.40
2023-03-26T11:06:43.795Z,10.80
2023-03-26T11:09:11.753Z,14.00
2023-03-26T11:11:44.868Z,7.40
2023-03-26T11:14:35.403Z,9.50
2023-03-26T11:17:40.963Z,7.60
2023-03-26T11:20:16.619Z,8.70
2023-03-26T11:22:55.336Z,8.00
2023-03-26T11:25:33.872Z,6.30
2023-03-26T11:30:46.815Z,7.20
2023-03-26T11:33:22.856Z,7.90
2023-03-26T11:35:50.847Z,6.70
2023-03-26T11:38:44.374Z,8.90
2023-03-26T11:41:25.531Z,11.20
2023-03-26T11:44:13.134Z,7.50
2023-03-26T11:46:43.267Z,8.20
2023-03-26T11:49:12.091Z,8.60
2023-03-26T11:51:39.580Z,8.40
2023-03-26T11:54:07.289Z,6.20
2023-03-26T11:56:42.028Z,6.00
2023-03-26T12:00:03.652Z,8.00
2023-03-26T12:02:56.989Z,4.80
2023-03-26T12:05:30.811Z,11.40
2023-03-26T12:07:59.193Z,4.80
2023-03-26T12:10:32.599Z,4.70
2023-03-26T12:13:24.538Z,4.40
2023-03-26T12:15:51.140Z,3.70
2023-03-26T12:18:25.393Z,7.50
2023-03-26T12:21:04.913Z,4.40
2023-03-26T12:24:04.649Z,6.30
2023-03-26T12:26:44.228Z,3.70
2023-03-26T12:29:12.644Z,4.00
2023-03-26T12:31:54.257Z,2.90
2023-03-26T12:34:22.665Z,4.50
2023-03-26T12:36:54.758Z,4.30
2023-03-26T12:40:06.516Z,6.50
2023-03-26T12:42:52.740Z,4.10
2023-03-26T12:45:12.453Z,3.70
2023-03-26T12:48:01.145Z,3.60
2023-03-26T12:50:36.344Z,3.90
2023-03-26T12:53:31.405Z,3.80
2023-03-26T12:56:04.004Z,4.20
2023-03-26T12:58:40.468Z,4.40
2023-03-26T13:01:47.048Z,6.40
2023-03-26T13:04:45.110Z,4.70
2023-03-26T13:07:54.057Z,3.90
2023-03-26T13:10:42.492Z,5.20
2023-03-26T13:13:45.923Z,5.00
2023-03-26T13:16:18.525Z,5.20
2023-03-26T13:18:55.399Z,6.70
2023-03-26T13:21:40.927Z,2.90
2023-03-26T13:24:07.711Z,3.40
2023-03-26T13:26:56.868Z,5.40
2023-03-26T13:29:46.123Z,4.00
2023-03-26T13:32:44.190Z,7.10
2023-03-26T13:35:26.155Z,4.20
2023-03-26T13:38:34.507Z,5.20
2023-03-26T13:41:06.295Z,7.80
2023-03-26T13:43:55.165Z,3.00
2023-03-26T13:46:42.507Z,3.10
2023-03-26T13:49:26.874Z,3.10
2023-03-26T13:52:05.536Z,4.60
2023-03-26T13:54:49.635Z,3.30
2023-03-26T13:57:28.859Z,3.50
2023-03-26T14:00:12.045Z,8.80
2023-03-26T14:02:43.579Z,4.00
2023-03-26T14:05:22.189Z,3.60
2023-03-26T14:07:51.839Z,5.00
2023-03-26T14:10:20.912Z,4.20
2023-03-26T14:12:55.218Z,3.40
2023-03-26T14:15:26.747Z,5.40
2023-03-26T14:18:31.069Z,3.80
2023-03-26T14:21:25.924Z,5.30
2023-03-26T14:24:18.801Z,5.10
2023-03-26T14:27:02.820Z,3.50
2023-03-26T14:29:57.819Z,3.40
2023-03-26T14:32:44.217Z,4.30
2023-03-26T14:35:10.781Z,4.20
2023-03-26T14:37:54.810Z,2.60
2023-03-26T14:41:00.142Z,3.00
2023-03-26T14:43:49.179Z,4.20
2023-03-26T14:46:19.858Z,4.70
2023-03-26T14:49:08.275Z,4.50
2023-03-26T14:51:45.967Z,4.60
2023-03-26T14:54:34.790Z,2.90
2023-03-26T14:57:23.494Z,4.70
2023-03-26T15:00:14.936Z,6.80
2023-03-26T15:03:07.414Z,7.30
2023-03-26T15:06:11.802Z,3.90
2023-03-26T15:09:16.933Z,10.30
2023-03-26T15:12:16.264Z,5.90
2023-03-26T15:15:00.524Z,6.40
2023-03-26T15:17:33.811Z,9.10
2023-03-26T15:20:32.865Z,5.70
2023-03-26T15:23:08.868Z,5.50
2023-03-26T15:25:48.659Z,10.80
2023-03-26T15:28:54.325Z,7.30
2023-03-26T15:31:42.164Z,6.10
2023-03-26T15:34:27.566Z,8.30
2023-03-26T15:37:10.072Z,5.80
2023-03-26T15:39:59.475Z,8.80
2023-03-26T15:42:44.915Z,7.50
2023-03-26T15:45:44.597Z,7.50
2023-03-26T15:48:12.124Z,5.40
2023-03-26T15:50:42.918Z,5.00
2023-03-26T15:53:54.242Z,5.60
2023-03-26T15:56:33.663Z,6.50
2023-03-26T15:59:31.022Z,5.90
2023-03-26T16:02:25.887Z,8.20
2023-03-26T16:04:56.953Z,8.90
2023-03-26T16:07:28.325Z,8.90
2023-03-26T16:10:21.277Z,7.50
2023-03-26T16:13:13.064Z,7.50
2023-03-26T16:15:58.203Z,8.80
2023-03-26T16:18:30.818Z,7.10
2023-03-26T16:21:31.466Z,7.00
2023-03-26T16:24:02.488Z,5.70
2023-03-26T16:26:48.033Z,5.60
2023-03-26T16:29:25.015Z,8.00
2023-03-26T16:32:06.839Z,8.50
2023-03-26T16:34:52.227Z,6.80
2023-03-26T16:37:39.144Z,6.00
2023-03-26T16:40:21.844Z,3.90
2023-03-26T16:43:26.061Z,7.20
2023-03-26T16:46:05.131Z,5.40
2023-03-26T16:48:36.385Z,7.60
2023-03-26T16:51:30.823Z,6.30
2023-03-26T16:54:23.164Z,7.30
2023-03-26T16:56:53.060Z,5.70
2023-03-26T16:59:45.759Z,4.40
2023-03-26T17:02:40.855Z,6.50
2023-03-26T17:05:21.143Z,5.40
2023-03-26T17:08:00.757Z,2.70
2023-03-26T17:10:37.146Z,2.90
2023-03-26T17:13:25.286Z,2.10
2023-03-26T17:16:15.585Z,3.30
2023-03-26T17:18:50.391Z,2.70
2023-03-26T17:22:02.025Z,3.90
2023-03-26T17:24:40.046Z,3.50
2023-03-26T17:27:49.487Z,3.60
2023-03-26T17:30:51.071Z,4.80
2023-03-26T17:33:26.235Z,4.40
2023-03-26T17:36:11.452Z,3.90
2023-03-26T17:38:40.645Z,4.40
2023-03-26T17:41:17.860Z,7.10
2023-03-26T17:43:44.890Z,5.10
2023-03-26T17:46:31.193Z,3.10
2023-03-26T17:48:59.372Z,5.50
2023-03-26T17:51:39.756Z,3.50
2023-03-26T17:54:17.696Z,7.30
2023-03-26T17:56:44.455Z,5.00
2023-03-26T17:59:17.825Z,4.70
2023-03-26T18:01:47.646Z,7.20
2023-03-26T18:04:19.016Z,5.70
2023-03-26T18:07:01.060Z,7.40
2023-03-26T18:09:41.489Z,7.70
2023-03-26T18:12:27.128Z,6.60
2023-03-26T18:15:13.582Z,7.80
2023-03-26T18:17:45.529Z,6.60
2023-03-26T18:20:41.901Z,5.40
2023-03-26T18:23:10.431Z,6.40
2023-03-26T18:25:37.692Z,8.60
2023-03-26T18:28:04.357Z,6.20
2023-03-26T18:30:30.997Z,8.60
2023-03-26T18:33:02.999Z,5.70
2023-03-26T18:35:44.412Z,9.40
2023-03-26T18:38:18.782Z,10.80
2023-03-26T18:41:02.993Z,9.60
2023-03-26T18:43:34.788Z,8.20
2023-03-26T18:46:03.026Z,10.90
2023-03-26T18:48:30.176Z,11.80
2023-03-26T18:51:05.238Z,13.20
2023-03-26T18:53:39.153Z,13.00
2023-03-26T18:56:30.167Z,12.30
2023-03-26T18:58:59.399Z,12.30
2023-03-26T19:01:30.764Z,12.30
2023-03-26T19:04:04.327Z,12.00
2023-03-26T19:06:35.254Z,12.50
2023-03-26T19:09:07.769Z,11.30
2023-03-26T19:11:38.090Z,11.90
2023-03-26T19:14:07.344Z,12.40
2023-03-26T19:16:35.999Z,14.40
2023-03-26T19:19:05.750Z,14.40
2023-03-26T19:21:33.495Z,12.20
2023-03-26T19:24:06.391Z,11.80
2023-03-26T19:26:33.674Z,13.30
2023-03-26T19:29:00.443Z,12.10
2023-03-26T19:31:38.327Z,11.70
2023-03-26T19:34:19.323Z,10.10
2023-03-26T19:36:51.861Z,10.80
2023-03-26T19:39:34.649Z,11.70
2023-03-26T19:42:04.647Z,10.50
2023-03-26T19:44:32.084Z,10.90
2023-03-26T19:47:04.724Z,8.70
2023-03-26T19:49:41.642Z,8.10
2023-03-26T19:52:24.667Z,10.60
2023-03-26T19:55:18.459Z,13.00
2023-03-26T19:57:45.032Z,11.90
2023-03-26T20:00:13.496Z,11.70
2023-03-26T20:02:45.899Z,10.80
2023-03-26T20:05:17.928Z,13.90
2023-03-26T20:07:49.700Z,12.30
2023-03-26T20:10:16.453Z,11.40
2023-03-26T20:12:43.038Z,9.90
2023-03-26T20:15:19.585Z,12.40
2023-03-26T20:18:04.783Z,11.50
2023-03-26T20:20:33.581Z,10.10
2023-03-26T20:23:00.947Z,11.30
2023-03-26T20:25:36.846Z,10.30
2023-03-26T20:28:05.261Z,9.90
2023-03-26T20:30:37.892Z,10.20
2023-03-26T20:35:42.497Z,12.20
2023-03-26T20:38:09.985Z,11.60
2023-03-26T20:40:37.733Z,7.80
2023-03-26T20:43:09.261Z,8.20
2023-03-26T20:45:36.523Z,9.90
2023-03-26T20:48:04.880Z,10.10
2023-03-26T20:50:35.706Z,10.20
2023-03-26T20:53:02.657Z,12.10
2023-03-26T20:55:29.365Z,9.20
2023-03-26T20:57:55.875Z,10.30
2023-03-26T21:00:25.482Z,8.20
2023-03-26T21:02:53.938Z,9.50
2023-03-26T21:05:26.119Z,7.90
2023-03-26T21:07:56.627Z,8.60
2023-03-26T21:10:28.944Z,10.90
2023-03-26T21:12:57.486Z,10.30
2023-03-26T21:15:28.996Z,9.30
2023-03-26T21:17:56.191Z,8.50
2023-03-26T21:20:24.679Z,9.60
2023-03-26T21:23:31.470Z,8.50
2023-03-26T21:26:07.233Z,9.40
2023-03-26T21:28:42.381Z,7.70
2023-03-26T21:31:23.932Z,7.50
2023-03-26T21:33:51.746Z,6.80
2023-03-26T21:36:19.152Z,7.80
2023-03-26T21:38:46.643Z,8.90
2023-03-26T21:41:24.665Z,7.80
2023-03-26T21:43:51.731Z,5.90
2023-03-26T21:46:18.628Z,6.60
2023-03-26T21:48:47.335Z,5.50
2023-03-26T21:51:14.658Z,8.70
2023-03-26T21:53:42.186Z,8.00
2023-03-26T21:56:21.180Z,6.50
2023-03-26T21:58:55.370Z,7.60
2023-03-26T22:01:46.218Z,7.70
2023-03-26T22:04:53.610Z,6.90
2023-03-26T22:07:35.081Z,7.60
2023-03-26T22:10:01.620Z,6.50
2023-03-26T22:12:28.524Z,5.90
2023-03-26T22:14:55.303Z,7.10
2023-03-26T22:17:22.463Z,8.20
2023-03-26T22:19:49.516Z,5.40
2023-03-26T22:22:16.282Z,6.60
2023-03-26T22:24:43.365Z,7.00
2023-03-26T22:27:16.929Z,6.80
2023-03-26T22:29:43.474Z,6.70
2023-03-26T22:32:10.504Z,6.50
2023-03-26T22:34:38.089Z,8.40
2023-03-26T22:37:05.167Z,9.10
2023-03-26T22:39:42.989Z,8.10
2023-03-26T22:42:09.783Z,8.70
2023-03-26T22:44:36.610Z,6.90
2023-03-26T22:47:04.233Z,12.60
2023-03-26T22:49:31.765Z,7.00
2023-03-26T22:52:06.611Z,6.60
2023-03-26T22:54:35.881Z,6.20
2023-03-26T22:57:02.975Z,7.80
2023-03-26T22:59:30.503Z,8.30
2023-03-26T23:01:57.207Z,6.10
2023-03-26T23:04:31.237Z,7.30
2023-03-26T23:08:03.603Z,5.80
2023-03-26T23:10:31.529Z,9.20
2023-03-26T23:13:00.828Z,8.30
2023-03-26T23:15:30.581Z,6.40
2023-03-26T23:17:59.479Z,6.20
2023-03-26T23:20:29.291Z,5.60
2023-03-26T23:22:57.540Z,5.80
2023-03-26T23:25:32.961Z,6.30
2023-03-26T23:28:02.025Z,8.10
2023-03-26T23:30:30.443Z,6.10
2023-03-26T23:32:58.849Z,7.60
2023-03-26T23:35:26.848Z,7.60
2023-03-26T23:37:55.996Z,9.50
2023-03-26T23:40:24.569Z,8.50
2023-03-26T23:42:52.812Z,8.60
2023-03-26T23:45:22.724Z,8.50
2023-03-26T23:47:51.410Z,7.80
2023-03-26T23:50:20.887Z,6.50
2023-03-26T23:52:50.369Z,14.60
2023-03-26T23:55:18.283Z,16.60
2023-03-26T23:57:47.523Z,11.40
